Time;durP1;ratioP1;P1;durP2;ratioP2;P2;SDS_P1;SDS_P2;PMS_P1;PMS_P2;Temp;Humidity;BMP_temperature;BMP_pressure;BME280_temperature;BME280_humidity;BME280_pressure;Samples;Min_cycle;Max_cycle;Signal;HPM_P1;HPM_P2
2022/04/16 00:01:59;;;;;;;6.63;6.47;;;23.90;59.00;;;;;;5072700;28;20827;-51
2022/04/16 00:04:26;;;;;;;6.20;6.00;;;23.90;59.10;;;;;;5072365;28;20454;-53
2022/04/16 00:06:54;;;;;;;6.70;6.50;;;23.90;59.20;;;;;;5072039;28;20882;-50
2022/04/16 00:09:21;;;;;;;6.33;6.23;;;23.90;59.10;;;;;;5072067;28;20447;-51
2022/04/16 00:11:48;;;;;;;6.87;6.67;;;23.90;59.00;;;;;;5072307;28;20440;-50
2022/04/16 00:14:15;;;;;;;6.87;6.67;;;23.90;58.90;;;;;;5071738;28;20513;-48
2022/04/16 00:16:44;;;;;;;7.07;6.87;;;23.90;58.80;;;;;;5071715;28;20443;-49
2022/04/16 00:19:11;;;;;;;6.10;6.00;;;23.90;58.70;;;;;;5071910;28;20447;-48
2022/04/16 00:21:38;;;;;;;6.60;6.40;;;23.90;58.60;;;;;;5072030;28;20484;-50
2022/04/16 00:24:07;;;;;;;6.87;6.67;;;24.00;58.50;;;;;;5071854;28;20451;-48
2022/04/16 00:26:38;;;;;;;6.33;6.13;;;24.00;58.40;;;;;;5071820;28;20483;-50
2022/04/16 00:29:05;;;;;;;6.50;6.30;;;24.00;58.30;;;;;;5072137;28;20475;-50
2022/04/16 00:31:32;;;;;;;6.03;5.83;;;24.00;58.20;;;;;;5071830;28;20448;-50
2022/04/16 00:33:59;;;;;;;6.20;6.10;;;24.10;58.20;;;;;;5072049;28;21013;-50
2022/04/16 00:36:26;;;;;;;6.63;6.43;;;24.10;58.10;;;;;;5071756;28;20454;-50
2022/04/16 00:38:52;;;;;;;6.20;6.00;;;24.10;58.00;;;;;;5072116;28;20498;-49
2022/04/16 00:41:22;;;;;;;6.00;5.90;;;24.10;58.10;;;;;;5071831;28;20454;-50
2022/04/16 00:43:52;;;;;;;6.97;6.77;;;24.10;58.00;;;;;;5071872;28;20464;-50
2022/04/16 00:46:19;;;;;;;7.07;6.87;;;24.10;58.00;;;;;;5071670;28;20447;-50
2022/04/16 00:48:46;;;;;;;6.67;6.47;;;24.10;58.00;;;;;;5071345;28;20435;-47
2022/04/16 00:51:14;;;;;;;6.63;6.43;;;24.10;58.00;;;;;;5071603;28;20443;-50
2022/04/16 00:53:41;;;;;;;7.17;6.97;;;24.10;57.90;;;;;;5071685;28;20966;-49
2022/04/16 00:56:10;;;;;;;6.70;6.50;;;24.10;58.00;;;;;;5071133;28;20444;-50
2022/04/16 00:58:40;;;;;;;6.73;6.53;;;24.10;57.90;;;;;;5071469;28;20906;-50
2022/04/16 01:01:07;;;;;;;7.03;6.83;;;24.10;57.90;;;;;;5071384;28;20440;-49
2022/04/16 01:03:34;;;;;;;7.17;6.97;;;24.00;57.80;;;;;;5071579;28;20475;-50
2022/04/16 01:06:00;;;;;;;6.53;6.23;;;24.00;57.80;;;;;;5071352;28;20961;-47
2022/04/16 01:08:27;;;;;;;7.13;6.93;;;24.00;57.80;;;;;;5071214;28;20453;-52
2022/04/16 01:10:54;;;;;;;7.23;7.03;;;24.00;57.80;;;;;;5051468;28;20444;-50
2022/04/16 01:13:21;;;;;;;6.50;6.40;;;23.90;57.70;;;;;;5051525;28;20464;-51
2022/04/16 01:15:50;;;;;;;6.77;6.57;;;23.90;57.80;;;;;;5063378;28;20450;-49
2022/04/16 01:18:17;;;;;;;7.80;7.50;;;23.90;57.90;;;;;;5071200;28;20566;-48
2022/04/16 01:20:44;;;;;;;6.33;6.23;;;23.90;57.90;;;;;;5071999;28;20477;-51
2022/04/16 01:23:12;;;;;;;6.63;6.50;;;23.90;57.90;;;;;;5075313;28;20906;-51
2022/04/16 01:25:39;;;;;;;7.53;7.33;;;23.90;57.80;;;;;;5075262;28;20969;-47
2022/04/16 01:28:06;;;;;;;7.17;6.97;;;23.90;57.70;;;;;;5074849;28;20440;-50
2022/04/16 01:30:34;;;;;;;7.00;6.80;;;23.90;57.70;;;;;;5075495;28;20462;-48
2022/04/16 01:33:03;;;;;;;6.83;6.63;;;23.90;57.60;;;;;;5075462;28;20466;-49
2022/04/16 01:35:30;;;;;;;6.60;6.50;;;23.90;57.50;;;;;;5075058;28;20872;-51
2022/04/16 01:37:57;;;;;;;7.40;7.20;;;23.90;57.40;;;;;;5074998;28;20475;-50
2022/04/16 01:40:25;;;;;;;6.73;6.53;;;23.90;57.30;;;;;;5074885;28;20446;-50
2022/04/16 01:42:56;;;;;;;6.83;6.63;;;23.90;57.30;;;;;;5074989;28;20471;-49
2022/04/16 01:45:24;;;;;;;6.83;6.63;;;23.90;57.20;;;;;;5074844;28;20513;-47
2022/04/16 01:47:51;;;;;;;6.70;6.50;;;23.90;57.10;;;;;;5074795;28;20450;-49
2022/04/16 01:50:19;;;;;;;7.53;7.23;;;24.00;57.10;;;;;;5074825;28;20447;-49
2022/04/16 01:52:47;;;;;;;6.57;6.37;;;24.00;57.00;;;;;;5074697;28;21059;-48
2022/04/16 01:55:14;;;;;;;6.80;6.60;;;24.00;57.00;;;;;;5074649;28;20447;-49
2022/04/16 01:57:42;;;;;;;6.47;6.37;;;24.00;57.00;;;;;;5074362;28;20876;-49
2022/04/16 02:00:11;;;;;;;6.97;6.77;;;24.00;57.00;;;;;;5074706;28;20447;-50
2022/04/16 02:02:38;;;;;;;7.03;6.83;;;24.00;56.90;;;;;;5074743;28;20849;-51
2022/04/16 02:05:06;;;;;;;8.30;8.10;;;23.90;56.80;;;;;;5074656;28;20451;-50
2022/04/16 02:07:32;;;;;;;6.73;6.53;;;24.00;56.90;;;;;;5074141;28;20447;-49
2022/04/16 02:10:00;;;;;;;6.67;6.47;;;23.90;56.80;;;;;;5074662;28;20474;-50
2022/04/16 02:12:27;;;;;;;7.00;6.80;;;23.90;56.80;;;;;;5074256;28;20475;-50
2022/04/16 02:14:55;;;;;;;6.50;6.30;;;23.90;56.80;;;;;;5074335;28;20446;-49
2022/04/16 02:17:23;;;;;;;7.63;7.40;;;23.90;56.80;;;;;;5074099;28;20832;-47
2022/04/16 02:19:49;;;;;;;6.93;6.73;;;23.90;56.90;;;;;;5074295;28;20560;-49
2022/04/16 02:22:16;;;;;;;7.40;7.10;;;23.90;56.90;;;;;;5074254;28;20467;-49
2022/04/16 02:24:46;;;;;;;6.97;6.77;;;23.90;57.00;;;;;;5074188;28;20446;-50
2022/04/16 02:27:13;;;;;;;8.00;7.80;;;23.90;57.00;;;;;;5074308;28;20454;-50
2022/04/16 02:29:39;;;;;;;7.10;6.90;;;23.80;56.90;;;;;;5074376;28;20455;-47
2022/04/16 02:32:08;;;;;;;6.77;6.63;;;23.80;56.80;;;;;;5074029;28;20463;-50
2022/04/16 02:34:35;;;;;;;7.20;7.00;;;23.80;56.80;;;;;;5074074;28;20444;-48
2022/04/16 02:37:02;;;;;;;7.00;6.80;;;23.80;56.90;;;;;;5073815;28;20444;-48
2022/04/16 02:39:28;;;;;;;7.13;6.93;;;23.80;57.00;;;;;;5073627;28;20479;-48
2022/04/16 02:41:55;;;;;;;7.30;7.07;;;23.90;57.00;;;;;;5073862;28;20810;-49
2022/04/16 02:47:08;;;;;;;6.97;6.77;;;23.90;56.90;;;;;;5073481;28;20442;-47
2022/04/16 02:49:36;;;;;;;7.40;7.20;;;23.90;56.80;;;;;;5073637;28;20530;-51
2022/04/16 02:52:02;;;;;;;6.60;6.40;;;23.90;56.80;;;;;;5073782;28;20475;-48
2022/04/16 02:54:29;;;;;;;6.90;6.70;;;23.90;56.70;;;;;;5073708;28;20451;-51
2022/04/16 02:56:56;;;;;;;7.10;6.90;;;23.90;56.60;;;;;;5073463;28;20447;-49
2022/04/16 02:59:23;;;;;;;6.87;6.67;;;23.90;56.60;;;;;;5073763;28;20529;-48
2022/04/16 03:01:50;;;;;;;6.63;6.47;;;23.90;56.50;;;;;;5073358;28;20466;-49
2022/04/16 03:04:18;;;;;;;7.20;7.00;;;23.90;56.50;;;;;;5073216;28;20448;-49
2022/04/16 03:06:45;;;;;;;6.70;6.53;;;23.90;56.40;;;;;;5073032;28;20989;-49
2022/04/16 03:09:12;;;;;;;6.80;6.50;;;23.90;56.40;;;;;;5073349;28;20923;-49
2022/04/16 03:11:40;;;;;;;7.50;7.30;;;23.90;56.40;;;;;;5073461;28;20833;-47
2022/04/16 03:19:35;;;;;;;6.97;6.77;;;23.90;56.30;;;;;;5073201;28;20895;-47
2022/04/16 03:22:03;;;;;;;6.53;6.43;;;23.90;56.30;;;;;;5072876;28;20509;-50
2022/04/16 03:24:30;;;;;;;6.43;6.33;;;23.90;56.40;;;;;;5073062;28;20439;-48
2022/04/16 03:26:57;;;;;;;6.33;6.23;;;23.90;56.40;;;;;;5072911;28;20857;-51
2022/04/16 03:29:23;;;;;;;7.13;6.93;;;23.80;56.30;;;;;;5072967;28;20436;-50
2022/04/16 03:31:50;;;;;;;7.13;6.93;;;23.80;56.30;;;;;;5072919;28;20790;-49
2022/04/16 03:34:17;;;;;;;6.90;6.70;;;23.80;56.20;;;;;;5072905;28;20446;-50
2022/04/16 03:36:45;;;;;;;6.80;6.60;;;23.80;56.20;;;;;;5072415;28;20447;-48
2022/04/16 03:39:12;;;;;;;6.70;6.50;;;23.80;56.20;;;;;;5072411;28;20475;-49
2022/04/16 03:41:38;;;;;;;7.00;6.80;;;23.80;56.20;;;;;;5073005;28;20450;-50
2022/04/16 03:44:06;;;;;;;7.27;6.97;;;23.80;56.10;;;;;;5072263;28;20505;-50
2022/04/16 03:46:33;;;;;;;7.00;6.87;;;23.80;56.00;;;;;;5072335;28;20456;-50
2022/04/16 03:49:00;;;;;;;8.20;7.90;;;23.80;55.90;;;;;;5072588;28;20497;-51
2022/04/16 03:51:27;;;;;;;6.77;6.57;;;23.80;55.90;;;;;;5072724;28;20440;-49
2022/04/16 03:59:59;;;;;;;7.10;6.90;;;23.80;55.90;;;;;;5072122;28;20467;-50
2022/04/16 04:02:11;;;;;;;6.67;6.47;;;23.90;55.80;;;;;;5072334;28;20496;-50
2022/04/16 04:04:38;;;;;;;7.37;7.17;;;23.90;55.70;;;;;;5072373;28;20483;-49
2022/04/16 04:07:05;;;;;;;7.33;7.13;;;23.90;55.70;;;;;;5072128;28;20447;-47
2022/04/16 04:09:33;;;;;;;6.90;6.70;;;23.90;55.60;;;;;;5071948;28;20865;-49
2022/04/16 04:12:00;;;;;;;8.13;7.90;;;24.00;56.10;;;;;;5072190;28;20467;-49
2022/04/16 04:14:27;;;;;;;6.70;6.50;;;24.00;55.30;;;;;;5072161;28;20451;-49
2022/04/16 04:16:54;;;;;;;7.20;6.93;;;24.10;55.30;;;;;;5071501;28;20451;-50
2022/04/16 04:19:20;;;;;;;7.30;7.10;;;24.10;55.10;;;;;;5072131;28;20475;-47
2022/04/16 04:21:47;;;;;;;6.83;6.63;;;24.10;55.00;;;;;;5071843;28;20439;-47
2022/04/16 04:24:14;;;;;;;6.50;6.30;;;24.20;55.10;;;;;;5071775;28;20439;-47
2022/04/16 04:26:42;;;;;;;6.43;6.23;;;24.20;55.00;;;;;;5071671;28;20443;-47
2022/04/16 04:29:08;;;;;;;6.90;6.70;;;24.20;54.90;;;;;;5071860;28;20448;-49
2022/04/16 04:31:35;;;;;;;7.10;6.90;;;24.20;54.80;;;;;;5071838;28;20935;-51
2022/04/16 04:34:02;;;;;;;7.73;7.33;;;24.20;54.80;;;;;;5071718;28;20471;-48
2022/04/16 04:36:29;;;;;;;6.97;6.77;;;24.20;54.70;;;;;;5071520;28;20865;-50
2022/04/16 04:38:55;;;;;;;7.03;6.83;;;24.20;54.70;;;;;;5071764;28;20479;-49
2022/04/16 04:41:22;;;;;;;7.13;6.93;;;24.20;54.60;;;;;;5071482;28;20910;-49
2022/04/16 04:43:50;;;;;;;7.00;6.80;;;24.20;54.60;;;;;;5071579;28;20464;-52
2022/04/16 04:46:17;;;;;;;6.90;6.70;;;24.20;54.50;;;;;;5071457;28;20444;-50
2022/04/16 04:48:43;;;;;;;7.30;6.90;;;24.20;54.50;;;;;;5071681;28;21117;-50
2022/04/16 04:51:10;;;;;;;7.40;7.20;;;24.20;54.50;;;;;;5071502;28;20436;-49
2022/04/16 04:53:37;;;;;;;6.30;6.20;;;24.20;54.50;;;;;;5071580;28;20460;-51
2022/04/16 04:56:04;;;;;;;6.30;6.20;;;24.20;54.50;;;;;;5070617;28;20435;-50
2022/04/16 04:58:31;;;;;;;6.30;6.20;;;24.20;54.60;;;;;;5071160;28;20482;-47
2022/04/16 05:01:00;;;;;;;6.70;6.50;;;24.10;54.40;;;;;;5071616;28;20469;-49
2022/04/16 05:03:26;;;;;;;7.20;6.90;;;24.10;54.50;;;;;;5071418;28;20496;-48
2022/04/16 05:05:53;;;;;;;7.07;6.83;;;24.10;54.70;;;;;;5071627;28;20458;-51
2022/04/16 05:08:20;;;;;;;6.60;6.50;;;24.10;54.60;;;;;;5071486;28;20446;-49
2022/04/16 05:10:46;;;;;;;6.90;6.70;;;24.10;54.60;;;;;;5071641;28;20818;-49
2022/04/16 05:13:13;;;;;;;6.90;6.70;;;24.00;54.60;;;;;;5071403;28;20459;-47
2022/04/16 05:15:40;;;;;;;6.97;6.77;;;24.00;54.60;;;;;;5070913;28;20448;-49
2022/04/16 05:18:08;;;;;;;5.80;5.60;;;24.00;54.60;;;;;;5071352;28;20440;-48
2022/04/16 05:20:35;;;;;;;6.70;6.60;;;24.00;54.60;;;;;;5071415;28;20444;-51
2022/04/16 05:23:01;;;;;;;7.53;7.33;;;24.00;54.60;;;;;;5071088;28;20463;-50
2022/04/16 05:25:28;;;;;;;7.13;6.93;;;24.00;54.60;;;;;;5071531;28;20444;-62
2022/04/16 05:27:56;;;;;;;8.50;8.20;;;24.00;54.70;;;;;;5071181;28;20443;-65
2022/04/16 05:30:29;;;;;;;6.93;6.73;;;24.00;54.70;;;;;;5070020;28;20516;-52
2022/04/16 05:33:01;;;;;;;7.70;7.40;;;24.00;54.90;;;;;;5051157;28;20456;-53
2022/04/16 05:35:29;;;;;;;6.90;6.70;;;24.00;55.10;;;;;;5050940;28;20953;-52
2022/04/16 05:37:55;;;;;;;6.80;6.50;;;24.00;55.20;;;;;;5051142;28;20463;-52
2022/04/16 05:40:22;;;;;;;7.40;7.10;;;24.00;55.30;;;;;;5051176;28;20488;-51
2022/04/16 05:42:49;;;;;;;7.43;7.13;;;24.00;55.40;;;;;;5051382;28;20471;-49
2022/04/16 05:45:16;;;;;;;6.90;6.70;;;24.00;55.50;;;;;;5070646;28;20440;-50
2022/04/16 05:47:43;;;;;;;6.97;6.67;;;23.90;55.60;;;;;;5070867;28;20454;-50
2022/04/16 05:50:11;;;;;;;7.53;7.33;;;24.00;55.70;;;;;;5071086;28;20443;-49
2022/04/16 05:52:39;;;;;;;7.03;6.90;;;23.90;55.70;;;;;;5070976;28;20470;-48
2022/04/16 05:55:07;;;;;;;7.20;6.80;;;23.90;55.90;;;;;;5071061;28;20444;-48
2022/04/16 05:57:34;;;;;;;6.60;6.40;;;23.90;55.80;;;;;;5070519;28;20476;-47
2022/04/16 06:00:00;;;;;;;7.10;6.90;;;23.90;55.80;;;;;;5070785;28;21016;-48
2022/04/16 06:02:27;;;;;;;6.60;6.40;;;23.90;55.90;;;;;;5071243;28;21016;-48
2022/04/16 06:04:54;;;;;;;6.77;6.57;;;23.90;55.90;;;;;;5070793;28;20447;-47
2022/04/16 06:07:20;;;;;;;7.67;7.47;;;23.80;55.90;;;;;;5071832;28;20454;-46
2022/04/16 06:09:48;;;;;;;6.87;6.67;;;23.80;55.90;;;;;;5074310;28;20447;-48
2022/04/16 06:12:15;;;;;;;6.97;6.77;;;23.80;56.00;;;;;;5073883;28;20832;-47
2022/04/16 06:14:42;;;;;;;7.23;7.03;;;23.80;56.00;;;;;;5074149;28;20443;-49
2022/04/16 06:17:09;;;;;;;7.30;7.10;;;23.80;55.90;;;;;;5074074;28;20447;-50
2022/04/16 06:19:35;;;;;;;6.80;6.60;;;23.80;55.90;;;;;;5074356;28;20506;-52
2022/04/16 06:22:02;;;;;;;7.60;7.40;;;23.80;55.90;;;;;;5074440;28;20463;-59
2022/04/16 06:24:29;;;;;;;7.87;7.67;;;23.80;56.00;;;;;;5074124;28;20443;-52
2022/04/16 06:26:57;;;;;;;7.40;7.10;;;23.80;55.90;;;;;;5074223;28;20506;-54
2022/04/16 06:29:24;;;;;;;6.73;6.63;;;23.80;55.90;;;;;;5074175;28;20953;-59
2022/04/16 06:31:50;;;;;;;7.17;6.87;;;23.80;55.80;;;;;;5074016;28;20450;-47
2022/04/16 06:34:17;;;;;;;7.37;7.17;;;23.80;55.80;;;;;;5074038;28;20439;-54
2022/04/16 06:36:44;;;;;;;7.60;7.30;;;23.80;55.80;;;;;;5073929;28;20451;-53
2022/04/16 06:39:10;;;;;;;7.73;7.53;;;23.90;55.90;;;;;;5073857;28;20475;-55
2022/04/16 06:41:37;;;;;;;7.00;6.80;;;23.90;55.80;;;;;;5074020;28;20451;-49
2022/04/16 06:44:06;;;;;;;7.50;7.20;;;23.90;55.90;;;;;;5073849;28;20470;-50
2022/04/16 06:46:33;;;;;;;7.27;7.07;;;23.80;55.90;;;;;;5073843;28;21033;-49
2022/04/16 06:49:00;;;;;;;7.00;6.80;;;23.80;55.90;;;;;;5073762;28;20467;-49
2022/04/16 06:51:26;;;;;;;7.20;7.00;;;23.80;56.00;;;;;;5073705;28;20453;-49
2022/04/16 06:53:53;;;;;;;7.17;6.97;;;23.80;56.00;;;;;;5073700;28;20501;-52
2022/04/16 06:56:20;;;;;;;7.23;7.03;;;23.80;56.20;;;;;;5073236;28;20439;-50
2022/04/16 06:58:47;;;;;;;7.10;6.90;;;23.80;56.20;;;;;;5073428;28;20442;-50
2022/04/16 07:01:15;;;;;;;7.23;7.03;;;23.80;56.30;;;;;;5073316;28;20454;-50
2022/04/16 07:03:41;;;;;;;7.37;7.07;;;23.80;56.30;;;;;;5053457;28;20473;-49
2022/04/16 07:06:08;;;;;;;7.37;7.07;;;23.80;56.30;;;;;;5053293;28;20450;-49
2022/04/16 07:08:35;;;;;;;7.10;6.90;;;23.80;56.30;;;;;;5053359;28;20444;-49
2022/04/16 07:11:02;;;;;;;7.07;6.87;;;23.90;56.30;;;;;;5054854;28;20448;-50
2022/04/16 07:13:28;;;;;;;8.27;7.97;;;23.90;56.20;;;;;;5053199;28;20464;-50
2022/04/16 07:15:55;;;;;;;7.57;7.27;;;23.90;56.10;;;;;;5053015;28;20452;-50
2022/04/16 07:18:25;;;;;;;7.00;6.80;;;24.00;56.10;;;;;;5052764;28;20447;-50
2022/04/16 07:20:52;;;;;;;7.20;7.00;;;24.10;56.00;;;;;;5052897;28;20480;-52
2022/04/16 07:23:18;;;;;;;7.40;7.20;;;24.10;55.80;;;;;;5053049;28;20464;-51
2022/04/16 07:25:45;;;;;;;7.80;7.60;;;24.10;55.70;;;;;;5052919;28;20444;-49
2022/04/16 07:28:12;;;;;;;7.27;7.07;;;24.10;55.70;;;;;;5058393;28;20446;-52
2022/04/16 07:30:39;;;;;;;7.60;7.40;;;24.20;55.60;;;;;;5072911;28;20455;-49
2022/04/16 07:33:06;;;;;;;7.20;6.90;;;24.20;55.60;;;;;;5072801;28;21037;-49
2022/04/16 07:35:34;;;;;;;7.67;7.37;;;24.20;55.60;;;;;;5072718;28;20447;-50
2022/04/16 07:38:01;;;;;;;7.63;7.43;;;24.20;55.60;;;;;;5072534;28;20451;-50
2022/04/16 07:40:28;;;;;;;7.70;7.40;;;24.20;55.50;;;;;;5072547;28;20483;-51
2022/04/16 07:42:55;;;;;;;7.30;7.10;;;24.20;55.50;;;;;;5072661;28;20495;-51
2022/04/16 07:45:22;;;;;;;7.60;7.40;;;24.20;55.50;;;;;;5072491;28;20447;-51
2022/04/16 07:47:49;;;;;;;7.50;7.30;;;24.20;55.50;;;;;;5072454;28;20443;-53
2022/04/16 07:50:16;;;;;;;8.20;7.90;;;24.20;55.50;;;;;;5072658;28;20447;-53
2022/04/16 07:52:45;;;;;;;7.33;7.13;;;24.20;55.50;;;;;;5072505;28;20463;-58
2022/04/16 07:55:11;;;;;;;8.10;7.80;;;24.20;55.60;;;;;;5071991;28;20454;-52
2022/04/16 07:57:38;;;;;;;8.10;7.90;;;24.20;55.60;;;;;;5072396;28;20440;-56
2022/04/16 08:00:06;;;;;;;6.53;6.33;;;24.20;55.60;;;;;;5072185;28;20475;-56
2022/04/16 08:02:33;;;;;;;7.30;7.10;;;24.20;55.60;;;;;;5072387;28;20475;-53
2022/04/16 08:05:00;;;;;;;8.10;7.80;;;24.20;55.60;;;;;;5072271;28;20443;-53
2022/04/16 08:07:27;;;;;;;7.17;6.97;;;24.20;55.70;;;;;;5069183;28;20497;-58
2022/04/16 08:09:55;;;;;;;7.10;6.90;;;24.20;55.80;;;;;;5069739;28;20442;-52
2022/04/16 08:12:22;;;;;;;7.00;6.80;;;24.20;55.80;;;;;;5071469;28;20467;-47
2022/04/16 08:14:49;;;;;;;7.67;7.47;;;24.10;55.60;;;;;;5052412;28;20940;-48
2022/04/16 08:17:15;;;;;;;7.57;7.37;;;24.10;55.80;;;;;;5051970;28;20804;-51
2022/04/16 08:19:42;;;;;;;7.90;7.60;;;24.10;55.60;;;;;;5071006;28;20479;-50
2022/04/16 08:22:17;;;;;;;8.57;8.20;;;24.00;54.70;;;;;;5071561;28;20468;-51
2022/04/16 08:24:53;;;;;;;8.10;7.80;;;24.00;54.90;;;;;;5071612;28;20463;-52
2022/04/16 08:27:22;;;;;;;7.33;7.13;;;24.00;55.10;;;;;;5070660;28;20448;-52
2022/04/16 08:29:48;;;;;;;8.17;7.77;;;24.10;55.20;;;;;;5071719;28;20854;-51
2022/04/16 08:32:15;;;;;;;7.33;7.13;;;24.10;55.20;;;;;;5071881;28;20985;-50
2022/04/16 08:34:42;;;;;;;8.00;7.70;;;24.10;55.20;;;;;;5071667;28;20447;-50
2022/04/16 08:37:09;;;;;;;7.33;7.10;;;24.10;55.20;;;;;;5071635;28;20803;-51
2022/04/16 08:39:36;;;;;;;8.03;7.60;;;24.10;55.20;;;;;;5071327;28;20475;-50
2022/04/16 08:42:02;;;;;;;7.23;7.03;;;24.10;55.20;;;;;;5069828;28;20467;-50
2022/04/16 08:44:33;;;;;;;7.30;7.10;;;24.10;55.20;;;;;;5071692;28;20450;-51
2022/04/16 08:47:01;;;;;;;7.53;7.10;;;24.00;55.10;;;;;;5071510;28;20462;-51
2022/04/16 08:49:29;;;;;;;8.13;7.83;;;24.00;55.20;;;;;;5071598;28;20812;-52
2022/04/16 08:51:57;;;;;;;7.10;6.90;;;24.00;55.20;;;;;;5071646;28;20439;-51
2022/04/16 08:54:23;;;;;;;7.23;7.03;;;24.00;55.20;;;;;;5071622;28;20451;-50
2022/04/16 08:56:50;;;;;;;7.77;7.57;;;24.00;55.20;;;;;;5071334;28;20446;-52
2022/04/16 08:59:17;;;;;;;6.33;6.23;;;24.00;55.20;;;;;;5071555;28;20436;-51
2022/04/16 09:01:45;;;;;;;7.50;7.30;;;24.00;55.20;;;;;;5071313;28;20447;-50
2022/04/16 09:04:20;;;;;;;7.40;7.20;;;23.90;55.20;;;;;;5071526;28;20447;-51
2022/04/16 09:06:56;;;;;;;7.03;6.83;;;23.90;55.20;;;;;;5071260;28;20451;-51
2022/04/16 09:09:23;;;;;;;6.90;6.70;;;23.90;55.30;;;;;;5071700;28;20450;-49
2022/04/16 09:11:50;;;;;;;6.90;6.80;;;23.90;55.90;;;;;;5071302;28;20447;-54
2022/04/16 09:14:16;;;;;;;7.67;7.40;;;23.90;55.30;;;;;;5071353;28;20798;-51
2022/04/16 09:16:45;;;;;;;7.47;7.27;;;23.90;55.40;;;;;;5071398;28;20446;-54
2022/04/16 09:19:13;;;;;;;7.40;7.20;;;23.90;55.40;;;;;;5071229;28;20440;-51
2022/04/16 09:21:41;;;;;;;6.60;6.40;;;23.90;55.30;;;;;;5071536;28;20443;-52
2022/04/16 09:24:07;;;;;;;6.57;6.37;;;24.00;55.20;;;;;;5071223;28;20799;-53
2022/04/16 09:26:36;;;;;;;6.90;6.70;;;24.10;55.00;;;;;;5071099;28;20803;-51
2022/04/16 09:29:07;;;;;;;7.90;7.70;;;24.10;54.80;;;;;;5071233;28;20447;-50
2022/04/16 09:31:35;;;;;;;6.77;6.47;;;24.20;54.60;;;;;;5071285;28;20853;-51
2022/04/16 09:34:04;;;;;;;6.70;6.50;;;24.30;54.50;;;;;;5071173;28;20842;-51
2022/04/16 09:36:31;;;;;;;7.13;6.93;;;24.30;54.40;;;;;;5070934;28;20446;-49
2022/04/16 09:39:02;;;;;;;6.50;6.30;;;24.40;54.20;;;;;;5071051;28;20448;-51
2022/04/16 09:41:33;;;;;;;6.80;6.60;;;24.40;54.20;;;;;;5071103;28;20528;-52
2022/04/16 09:44:01;;;;;;;7.30;7.10;;;24.40;54.00;;;;;;5075029;28;20826;-51
2022/04/16 09:46:29;;;;;;;8.63;8.30;;;24.50;54.00;;;;;;5074619;28;20447;-50
2022/04/16 09:49:02;;;;;;;7.40;7.20;;;24.50;53.80;;;;;;5075024;28;20444;-52
2022/04/16 09:51:33;;;;;;;8.53;8.33;;;24.50;53.80;;;;;;5074853;28;20440;-53
2022/04/16 09:54:03;;;;;;;7.53;7.33;;;24.50;53.70;;;;;;5074667;28;20521;-49
2022/04/16 09:56:32;;;;;;;8.10;7.90;;;24.50;53.70;;;;;;5074594;28;20806;-51
2022/04/16 09:59:01;;;;;;;7.40;7.20;;;24.50;53.70;;;;;;5074049;28;20931;-51
2022/04/16 10:01:29;;;;;;;7.83;7.63;;;24.50;53.70;;;;;;5073181;28;20558;-49
2022/04/16 10:03:57;;;;;;;8.00;7.80;;;24.50;53.70;;;;;;5074804;28;20471;-53
2022/04/16 10:06:24;;;;;;;6.90;6.60;;;24.50;53.70;;;;;;5074546;28;20450;-49
2022/04/16 10:08:52;;;;;;;7.40;7.10;;;24.50;53.60;;;;;;5074369;28;20935;-49
2022/04/16 10:11:21;;;;;;;7.70;7.50;;;24.40;53.30;;;;;;5074362;28;20866;-48
2022/04/16 10:13:54;;;;;;;6.97;6.77;;;24.40;53.30;;;;;;5074455;28;20467;-49
2022/04/16 10:16:27;;;;;;;6.93;6.73;;;24.30;53.40;;;;;;5074435;28;20450;-48
2022/04/16 10:18:53;;;;;;;7.40;7.20;;;24.30;53.50;;;;;;5074114;28;20451;-51
2022/04/16 10:21:20;;;;;;;7.27;6.97;;;24.30;54.10;;;;;;5074046;28;20475;-55
2022/04/16 10:23:47;;;;;;;7.13;6.97;;;24.20;53.70;;;;;;5074161;28;20463;-49
2022/04/16 10:26:17;;;;;;;7.00;6.80;;;24.20;53.90;;;;;;5074062;28;20501;-49
2022/04/16 10:28:44;;;;;;;6.80;6.60;;;24.20;54.00;;;;;;5073860;28;20450;-49
2022/04/16 10:31:22;;;;;;;7.70;7.40;;;24.20;54.00;;;;;;5074187;28;20462;-49
2022/04/16 10:34:06;;;;;;;7.30;7.00;;;24.10;54.60;;;;;;5074047;28;20459;-48
2022/04/16 10:36:37;;;;;;;7.17;6.97;;;24.10;54.20;;;;;;5073778;28;20454;-49
2022/04/16 10:39:15;;;;;;;8.03;7.73;;;24.10;54.30;;;;;;5073758;28;20478;-48
2022/04/16 10:41:54;;;;;;;7.20;7.00;;;24.10;54.40;;;;;;5074000;28;20512;-50
2022/04/16 10:44:21;;;;;;;7.50;7.20;;;24.00;54.50;;;;;;5073762;28;20439;-49
2022/04/16 10:46:49;;;;;;;7.47;7.27;;;24.00;54.60;;;;;;5073562;28;20440;-47
2022/04/16 10:49:17;;;;;;;7.60;7.40;;;24.00;54.70;;;;;;5073177;28;20517;-50
2022/04/16 10:51:44;;;;;;;6.90;6.70;;;24.00;54.80;;;;;;5073423;28;20439;-50
2022/04/16 10:54:11;;;;;;;7.27;7.07;;;24.00;54.90;;;;;;5072540;28;20451;-51
2022/04/16 10:56:40;;;;;;;6.73;6.53;;;23.90;54.80;;;;;;5073072;28;20448;-49
2022/04/16 10:59:10;;;;;;;7.20;7.00;;;23.90;55.00;;;;;;5073494;28;20443;-50
2022/04/16 11:01:37;;;;;;;8.30;7.90;;;23.90;55.10;;;;;;5073537;28;20479;-50
2022/04/16 11:04:14;;;;;;;6.80;6.60;;;23.90;55.10;;;;;;5073709;28;20993;-50
2022/04/16 11:06:45;;;;;;;7.87;7.60;;;23.90;55.00;;;;;;5073172;28;20626;-49
2022/04/16 11:09:13;;;;;;;7.10;6.90;;;23.90;55.00;;;;;;5073690;28;20504;-49
2022/04/16 11:11:41;;;;;;;7.33;7.03;;;23.90;55.00;;;;;;5073384;28;20923;-50
2022/04/16 11:14:10;;;;;;;7.10;6.90;;;23.90;55.00;;;;;;5073434;28;20455;-50
2022/04/16 11:16:43;;;;;;;6.90;6.70;;;23.80;55.10;;;;;;5072920;28;20520;-50
2022/04/16 11:19:13;;;;;;;7.20;7.00;;;23.80;55.10;;;;;;5073247;28;20931;-48
2022/04/16 11:21:40;;;;;;;7.83;7.63;;;23.80;55.20;;;;;;5073369;28;20900;-47
2022/04/16 11:24:07;;;;;;;6.77;6.60;;;23.80;55.30;;;;;;5072786;28;20443;-50
2022/04/16 11:34:53;;;;;;;7.03;6.83;;;23.90;55.20;;;;;;5073269;28;20423;-51
2022/04/16 11:37:21;;;;;;;7.20;7.00;;;24.00;55.20;;;;;;5072558;28;20790;-55
2022/04/16 11:39:58;;;;;;;6.80;6.60;;;24.10;55.80;;;;;;5072851;28;20831;-49
2022/04/16 11:42:25;;;;;;;7.17;6.87;;;24.20;55.30;;;;;;5072730;28;20466;-50
2022/04/16 11:44:54;;;;;;;6.87;6.57;;;24.20;55.10;;;;;;5072613;28;20447;-49
2022/04/16 11:47:23;;;;;;;7.33;7.03;;;24.20;54.80;;;;;;5072302;28;20444;-50
2022/04/16 11:49:52;;;;;;;6.90;6.50;;;24.30;54.50;;;;;;5052578;28;20447;-49
2022/04/16 11:52:23;;;;;;;7.30;7.00;;;24.40;54.30;;;;;;5052505;28;20460;-49
2022/04/16 11:55:00;;;;;;;6.60;6.50;;;24.40;54.20;;;;;;5052724;28;20498;-51
2022/04/16 11:57:27;;;;;;;6.73;6.43;;;24.50;54.10;;;;;;5054032;28;20443;-50
2022/04/16 12:00:02;;;;;;;6.97;6.77;;;24.50;53.90;;;;;;5072254;28;20451;-49
2022/04/16 12:02:33;;;;;;;6.80;6.60;;;24.50;53.80;;;;;;5096825;22;20970;-44
2022/04/16 12:05:11;;;;;;;7.37;7.17;;;24.60;53.70;;;;;;5071794;28;20440;-45
2022/04/16 12:07:41;;;;;;;7.73;7.53;;;24.70;53.40;;;;;;5052449;28;20444;-44
2022/04/16 12:10:08;;;;;;;6.63;6.50;;;24.80;53.20;;;;;;5052206;28;20444;-46
2022/04/16 12:12:47;;;;;;;6.90;6.70;;;24.90;53.10;;;;;;5052361;28;20460;-44
2022/04/16 12:15:20;;;;;;;8.00;7.80;;;24.90;52.80;;;;;;5053535;28;20522;-45
2022/04/16 12:17:48;;;;;;;7.10;6.90;;;25.00;52.80;;;;;;5072022;28;20546;-44
2022/04/16 12:20:15;;;;;;;7.60;7.30;;;25.00;52.60;;;;;;5071995;28;20444;-45
2022/04/16 12:22:50;;;;;;;6.90;6.70;;;25.10;52.50;;;;;;5068459;28;20467;-43
2022/04/16 12:25:19;;;;;;;7.13;6.93;;;25.10;52.30;;;;;;5072011;28;20443;-43
2022/04/16 12:27:48;;;;;;;7.10;6.90;;;25.20;52.20;;;;;;5071683;28;20448;-43
2022/04/16 12:30:18;;;;;;;7.43;7.23;;;25.20;52.20;;;;;;5071871;28;20450;-46
2022/04/16 12:32:55;;;;;;;6.90;6.70;;;25.20;52.10;;;;;;5071859;28;20529;-48
2022/04/16 12:35:22;;;;;;;6.97;6.77;;;25.20;52.10;;;;;;5071334;28;20450;-46
2022/04/16 12:37:49;;;;;;;7.80;7.60;;;25.30;52.00;;;;;;5071763;28;20450;-44
2022/04/16 12:40:16;;;;;;;8.50;8.30;;;25.30;51.90;;;;;;5071761;28;20442;-44
2022/04/16 12:42:42;;;;;;;8.27;8.07;;;25.30;51.90;;;;;;5071809;28;20472;-44
2022/04/16 12:45:09;;;;;;;6.60;6.47;;;25.30;51.80;;;;;;5071391;28;20949;-44
2022/04/16 12:47:38;;;;;;;7.13;6.93;;;25.30;51.70;;;;;;5071520;28;20455;-44
2022/04/16 12:50:05;;;;;;;8.90;8.70;;;25.30;51.70;;;;;;5071855;28;20454;-45
2022/04/16 12:52:34;;;;;;;7.30;7.10;;;25.30;51.70;;;;;;5071550;28;20467;-46
2022/04/16 12:55:00;;;;;;;7.60;7.40;;;25.40;52.00;;;;;;5071501;28;20443;-46
2022/04/16 12:57:27;;;;;;;7.47;7.27;;;25.30;52.30;;;;;;5071395;28;20443;-43
2022/04/16 12:59:54;;;;;;;8.27;8.00;;;25.30;51.60;;;;;;5071654;28;20466;-47
2022/04/16 13:02:21;;;;;;;7.60;7.40;;;25.30;51.60;;;;;;5071624;28;20486;-45
2022/04/16 13:04:49;;;;;;;7.07;6.87;;;25.30;51.60;;;;;;5071529;28;20439;-46
2022/04/16 13:07:16;;;;;;;7.20;7.00;;;25.30;51.60;;;;;;5066366;28;20787;-44
2022/04/16 13:09:43;;;;;;;7.10;6.90;;;25.30;51.80;;;;;;5071283;28;20447;-43
2022/04/16 13:12:10;;;;;;;7.20;7.00;;;25.30;51.80;;;;;;5071398;28;20435;-43
2022/04/16 13:14:39;;;;;;;7.40;7.20;;;25.20;51.90;;;;;;5071521;28;20439;-44